Time;durP1;ratioP1;P1;durP2;ratioP2;P2;SDS_P1;SDS_P2;PMS_P1;PMS_P2;Temp;Humidity;BMP_temperature;BMP_pressure;BME280_temperature;BME280_humidity;BME280_pressure;Samples;Min_cycle;Max_cycle;Signal;HPM_P1;HPM_P2
2023/08/24 00:00:38;;;;;;;3.10;2.67;;;18.30;84.20;;;;;;5016079;28;20083;-79
2023/08/24 00:03:04;;;;;;;5.78;3.72;;;18.30;84.60;;;;;;4993699;28;20021;-79
2023/08/24 00:05:32;;;;;;;6.15;3.45;;;18.30;84.70;;;;;;5001677;28;20152;-80
2023/08/24 00:07:57;;;;;;;5.25;3.33;;;18.20;84.50;;;;;;4987988;28;20548;-79
2023/08/24 00:10:23;;;;;;;17.02;4.45;;;18.20;84.50;;;;;;5000187;28;20030;-79
2023/08/24 00:12:48;;;;;;;4.32;3.03;;;18.20;85.90;;;;;;5018095;28;20087;-79
2023/08/24 00:15:14;;;;;;;10.25;3.13;;;18.10;84.10;;;;;;4977204;28;20034;-79
2023/08/24 00:17:40;;;;;;;4.25;3.17;;;18.20;85.00;;;;;;5013573;28;20049;-79
2023/08/24 00:20:10;;;;;;;5.68;3.08;;;18.40;85.10;;;;;;4992483;28;20041;-79
2023/08/24 00:22:37;;;;;;;5.05;3.35;;;18.30;85.60;;;;;;4982343;28;20064;-79
2023/08/24 00:25:05;;;;;;;8.27;4.10;;;18.20;85.00;;;;;;5001194;28;20120;-79
2023/08/24 00:27:30;;;;;;;6.45;4.32;;;18.20;85.00;;;;;;4997275;28;20438;-79
2023/08/24 00:29:56;;;;;;;4.25;2.95;;;18.10;85.40;;;;;;4986069;28;20033;-79
2023/08/24 00:32:22;;;;;;;4.03;2.95;;;18.00;85.20;;;;;;5012678;28;20026;-79
2023/08/24 00:34:48;;;;;;;7.68;3.67;;;18.00;85.40;;;;;;4988086;28;20141;-78
2023/08/24 00:37:13;;;;;;;10.23;4.35;;;17.90;85.20;;;;;;5013392;28;20505;-79
2023/08/24 00:39:39;;;;;;;6.95;4.57;;;17.70;85.20;;;;;;5014175;28;20648;-79
2023/08/24 00:42:05;;;;;;;5.03;3.47;;;17.70;85.90;;;;;;5002783;28;20394;-78
2023/08/24 00:44:31;;;;;;;4.60;3.83;;;17.70;85.70;;;;;;5014601;28;20038;-78
2023/08/24 00:46:57;;;;;;;9.80;4.30;;;17.80;85.80;;;;;;4988416;28;20049;-78
2023/08/24 00:49:23;;;;;;;4.10;3.58;;;17.60;85.70;;;;;;5001374;28;20041;-79
2023/08/24 00:51:48;;;;;;;4.65;3.85;;;17.60;85.70;;;;;;5002618;28;20044;-78
2023/08/24 00:54:14;;;;;;;7.65;4.97;;;17.60;86.30;;;;;;5001457;28;20040;-78
2023/08/24 00:56:40;;;;;;;10.25;3.90;;;17.50;86.00;;;;;;4993036;28;20040;-78
2023/08/24 00:59:05;;;;;;;8.10;5.10;;;17.40;86.10;;;;;;5000197;28;20072;-78
2023/08/24 01:01:31;;;;;;;7.60;3.63;;;17.50;86.00;;;;;;5003178;28;20620;-78
2023/08/24 01:03:56;;;;;;;6.85;4.25;;;17.50;86.00;;;;;;4986659;28;20368;-78
2023/08/24 01:06:22;;;;;;;8.27;4.50;;;17.40;85.60;;;;;;5014330;28;20038;-78
2023/08/24 01:08:47;;;;;;;8.65;4.80;;;17.30;86.10;;;;;;5013468;28;20037;-78
2023/08/24 01:11:33;;;;;;;8.10;5.00;;;17.20;86.40;;;;;;4986576;28;20045;-78
2023/08/24 01:14:08;;;;;;;8.55;4.18;;;17.10;86.70;;;;;;5001024;28;20095;-78
2023/08/24 01:16:36;;;;;;;7.38;4.50;;;17.00;87.70;;;;;;4993738;28;20069;-78
2023/08/24 01:19:02;;;;;;;9.07;5.68;;;16.90;88.30;;;;;;4989032;28;20033;-78
2023/08/24 01:21:28;;;;;;;6.72;4.72;;;16.90;87.60;;;;;;4997758;28;20108;-78
2023/08/24 01:24:04;;;;;;;13.93;4.97;;;17.00;87.40;;;;;;4997781;28;20497;-78
2023/08/24 01:26:30;;;;;;;10.32;5.10;;;16.90;88.00;;;;;;4999118;28;20041;-78
2023/08/24 01:28:55;;;;;;;6.63;5.00;;;16.90;88.30;;;;;;4987188;28;20036;-78
2023/08/24 01:31:21;;;;;;;9.00;5.15;;;16.90;88.50;;;;;;5003793;28;20501;-78
2023/08/24 01:33:46;;;;;;;7.05;4.70;;;16.80;88.20;;;;;;5019062;28;20052;-77
2023/08/24 01:36:13;;;;;;;7.60;5.20;;;16.70;88.50;;;;;;5016831;28;20096;-77
2023/08/24 01:38:39;;;;;;;9.00;4.60;;;16.70;89.30;;;;;;5016107;28;20084;-78
2023/08/24 01:41:26;;;;;;;12.70;5.60;;;16.70;89.90;;;;;;5001263;28;20439;-78
2023/08/24 01:43:53;;;;;;;6.50;4.03;;;16.70;89.30;;;;;;5015465;28;20052;-77
2023/08/24 01:46:20;;;;;;;9.50;5.07;;;16.80;88.00;;;;;;5019035;28;20061;-78
2023/08/24 01:48:45;;;;;;;5.18;4.35;;;16.80;87.90;;;;;;4989271;28;20037;-78
2023/08/24 01:51:11;;;;;;;9.55;5.57;;;16.80;87.90;;;;;;4989939;28;20390;-78
2023/08/24 01:53:37;;;;;;;6.55;5.47;;;16.70;88.60;;;;;;4992424;28;20026;-77
2023/08/24 01:56:12;;;;;;;8.75;5.35;;;16.50;89.80;;;;;;5006671;28;20053;-78
2023/08/24 01:58:38;;;;;;;4.78;4.32;;;16.60;88.70;;;;;;5001236;28;20050;-77
2023/08/24 02:01:05;;;;;;;5.72;3.58;;;16.60;88.40;;;;;;4987934;28;20026;-76
2023/08/24 02:03:30;;;;;;;8.50;4.68;;;16.70;87.70;;;;;;4988626;28;20038;-79
2023/08/24 02:05:57;;;;;;;9.90;4.88;;;16.70;87.40;;;;;;5020715;28;20077;-79
2023/08/24 02:08:22;;;;;;;8.18;4.57;;;16.60;87.70;;;;;;5020205;28;20121;-79
2023/08/24 02:10:48;;;;;;;9.35;4.53;;;16.40;88.40;;;;;;4989895;28;20111;-79
2023/08/24 02:13:14;;;;;;;9.55;6.07;;;16.50;88.30;;;;;;5014770;28;20092;-79
2023/08/24 02:15:39;;;;;;;9.38;5.07;;;16.50;88.10;;;;;;5018218;28;20047;-79
2023/08/24 02:18:06;;;;;;;7.32;4.93;;;16.40;88.70;;;;;;5000388;28;20048;-79
2023/08/24 02:20:35;;;;;;;8.18;5.60;;;16.20;90.10;;;;;;5017322;28;20064;-79
2023/08/24 02:23:01;;;;;;;11.10;5.28;;;16.10;90.80;;;;;;5015427;28;20119;-78
2023/08/24 02:25:27;;;;;;;9.27;5.70;;;16.20;91.20;;;;;;5018674;28;20125;-79
2023/08/24 02:27:52;;;;;;;6.07;4.18;;;16.20;93.00;;;;;;5003906;28;20542;-78
2023/08/24 02:30:18;;;;;;;6.78;5.20;;;16.40;90.00;;;;;;5014405;28;20136;-78
2023/08/24 02:32:44;;;;;;;8.02;5.45;;;16.40;89.00;;;;;;4991558;28;20041;-79
2023/08/24 02:35:09;;;;;;;7.35;5.10;;;16.30;89.40;;;;;;4991617;28;20045;-79
2023/08/24 02:37:35;;;;;;;9.90;4.80;;;16.10;90.30;;;;;;5015967;28;20069;-78
2023/08/24 02:40:00;;;;;;;7.57;5.43;;;16.10;90.70;;;;;;5016311;28;20115;-78
2023/08/24 02:42:26;;;;;;;10.45;5.38;;;16.20;90.50;;;;;;5005036;28;20175;-78
2023/08/24 02:44:52;;;;;;;8.25;5.63;;;16.20;90.10;;;;;;4999316;28;20025;-78
2023/08/24 02:47:18;;;;;;;7.47;5.28;;;16.20;90.00;;;;;;5018286;28;20099;-78
2023/08/24 02:49:43;;;;;;;8.73;5.97;;;16.00;90.40;;;;;;5018200;28;20099;-78
2023/08/24 02:52:09;;;;;;;9.02;5.40;;;16.10;93.40;;;;;;5019258;28;20045;-78
2023/08/24 02:54:34;;;;;;;8.02;5.00;;;16.10;90.70;;;;;;5000480;28;20116;-78
2023/08/24 02:57:00;;;;;;;8.00;5.78;;;16.00;91.40;;;;;;5001456;28;20026;-78
2023/08/24 02:59:25;;;;;;;8.88;5.07;;;16.00;91.80;;;;;;5001649;28;20111;-78
2023/08/24 03:01:51;;;;;;;8.73;5.10;;;16.00;90.40;;;;;;4991580;28;20041;-78
2023/08/24 03:04:17;;;;;;;6.18;4.07;;;16.10;90.10;;;;;;5003120;28;20030;-79
2023/08/24 03:06:44;;;;;;;5.45;3.72;;;16.20;89.70;;;;;;5002606;28;20374;-78
2023/08/24 03:09:09;;;;;;;7.05;4.18;;;16.20;89.60;;;;;;4999887;28;20041;-79
2023/08/24 03:11:35;;;;;;;7.32;4.70;;;16.40;89.40;;;;;;4998821;28;20026;-78
2023/08/24 03:14:01;;;;;;;7.38;4.80;;;16.20;89.20;;;;;;5015070;28;20498;-78
2023/08/24 03:16:26;;;;;;;9.00;5.22;;;16.20;89.80;;;;;;5000743;28;20497;-78
2023/08/24 03:18:52;;;;;;;6.80;4.90;;;16.10;89.60;;;;;;5012394;28;20030;-78
2023/08/24 03:21:17;;;;;;;6.28;3.67;;;16.10;90.30;;;;;;4989012;28;20037;-78
2023/08/24 03:23:43;;;;;;;7.63;3.55;;;16.20;89.90;;;;;;5016265;28;20040;-78
2023/08/24 03:26:09;;;;;;;9.65;4.30;;;16.20;89.40;;;;;;4983663;28;20712;-78
2023/08/24 03:28:34;;;;;;;7.82;4.63;;;16.30;89.30;;;;;;5017249;28;20033;-78
2023/08/24 03:31:00;;;;;;;7.32;4.75;;;16.20;90.30;;;;;;5013185;28;20489;-78
2023/08/24 03:33:27;;;;;;;6.47;4.60;;;16.10;92.00;;;;;;5000902;28;20037;-78
2023/08/24 03:35:53;;;;;;;7.70;5.13;;;16.10;89.90;;;;;;4999900;28;20210;-78
2023/08/24 03:38:19;;;;;;;5.30;4.78;;;16.20;90.10;;;;;;5000591;28;20429;-78
2023/08/24 03:40:44;;;;;;;10.02;5.57;;;16.10;90.70;;;;;;5002249;28;20034;-78
2023/08/24 03:43:10;;;;;;;9.10;5.65;;;16.10;92.20;;;;;;5015932;28;20124;-79
2023/08/24 03:45:35;;;;;;;7.93;4.38;;;16.20;91.50;;;;;;5013328;28;20029;-78
2023/08/24 03:48:01;;;;;;;4.57;3.85;;;16.20;91.00;;;;;;4997762;28;20041;-78
2023/08/24 03:50:27;;;;;;;4.57;4.00;;;16.30;90.40;;;;;;5013587;28;20065;-78
2023/08/24 03:52:54;;;;;;;4.28;3.70;;;16.40;90.40;;;;;;5016470;28;20026;-79
2023/08/24 03:55:20;;;;;;;8.18;4.28;;;16.40;91.00;;;;;;5001921;28;20363;-78
2023/08/24 03:57:45;;;;;;;6.57;4.55;;;16.30;92.80;;;;;;5015176;28;20049;-78
2023/08/24 04:00:11;;;;;;;5.72;3.70;;;16.30;95.10;;;;;;4986579;28;20040;-79
2023/08/24 04:02:38;;;;;;;6.18;3.60;;;16.40;91.40;;;;;;5014191;28;20126;-78
2023/08/24 04:05:04;;;;;;;5.47;4.30;;;16.50;91.20;;;;;;5013537;28;20029;-78
2023/08/24 04:07:29;;;;;;;6.20;3.35;;;16.50;91.20;;;;;;5013861;28;20778;-79
2023/08/24 04:09:55;;;;;;;5.28;3.80;;;16.60;91.00;;;;;;4982449;28;20382;-78
2023/08/24 04:12:20;;;;;;;7.75;4.05;;;16.60;91.30;;;;;;4989047;28;20030;-78
2023/08/24 04:14:46;;;;;;;6.05;3.42;;;16.60;91.30;;;;;;5017318;28;20052;-78
2023/08/24 04:17:11;;;;;;;7.38;3.80;;;16.60;91.00;;;;;;5016409;28;24755;-79
2023/08/24 04:19:40;;;;;;;5.15;3.10;;;16.60;91.10;;;;;;4997831;28;20109;-79
2023/08/24 04:22:05;;;;;;;9.15;3.85;;;16.60;91.60;;;;;;5017653;28;20627;-79
2023/08/24 04:24:31;;;;;;;6.00;3.40;;;16.60;91.60;;;;;;5014494;28;20142;-78
2023/08/24 04:26:56;;;;;;;8.57;4.28;;;16.70;91.70;;;;;;5002474;28;20420;-79
2023/08/24 04:29:22;;;;;;;12.32;4.78;;;16.70;91.30;;;;;;5001236;28;20030;-79
2023/08/24 04:31:47;;;;;;;10.68;4.85;;;16.60;91.70;;;;;;5003198;28;20040;-79
2023/08/24 04:34:13;;;;;;;6.13;4.97;;;16.50;91.80;;;;;;4999122;28;20121;-79
2023/08/24 04:36:39;;;;;;;9.45;5.38;;;16.60;92.50;;;;;;4997687;28;20112;-79
2023/08/24 04:39:05;;;;;;;7.93;5.32;;;16.50;91.60;;;;;;5014151;28;20030;-79
2023/08/24 04:41:30;;;;;;;9.80;5.40;;;16.50;91.60;;;;;;4999248;28;20056;-79
2023/08/24 04:43:56;;;;;;;10.38;5.68;;;16.50;91.30;;;;;;4987626;28;20033;-79
2023/08/24 04:46:21;;;;;;;12.23;6.07;;;16.50;91.00;;;;;;4997509;28;20551;-79
2023/08/24 04:48:47;;;;;;;9.02;5.15;;;16.60;91.00;;;;;;4999718;28;20041;-79
2023/08/24 04:51:13;;;;;;;8.57;5.75;;;16.50;91.20;;;;;;5000009;28;20038;-79
2023/08/24 04:53:38;;;;;;;10.80;6.07;;;16.50;91.40;;;;;;5011502;28;20047;-79
2023/08/24 04:56:06;;;;;;;9.95;6.47;;;16.50;91.20;;;;;;5013749;28;20056;-79
2023/08/24 04:58:33;;;;;;;18.70;6.05;;;16.50;91.10;;;;;;5014527;28;20030;-79
2023/08/24 05:00:58;;;;;;;7.05;5.00;;;16.50;91.20;;;;;;5012247;28;20508;-79
2023/08/24 05:03:26;;;;;;;6.70;4.70;;;16.50;91.90;;;;;;4999753;28;20029;-79
2023/08/24 05:05:51;;;;;;;5.78;4.97;;;16.60;91.60;;;;;;5017862;28;20042;-77
2023/08/24 05:08:17;;;;;;;9.50;5.88;;;16.50;91.50;;;;;;4998594;28;20044;-77
2023/08/24 05:10:43;;;;;;;9.63;6.38;;;16.50;91.10;;;;;;5011940;28;20044;-77
2023/08/24 05:13:09;;;;;;;11.38;6.88;;;16.50;91.30;;;;;;5002627;28;20033;-77
2023/08/24 05:15:34;;;;;;;10.60;6.43;;;16.50;92.50;;;;;;5013603;28;20033;-79
2023/08/24 05:18:00;;;;;;;12.30;6.50;;;16.50;91.90;;;;;;5014295;28;20370;-80
2023/08/24 05:20:26;;;;;;;6.90;6.05;;;16.50;92.10;;;;;;5000100;28;20022;-79
2023/08/24 05:22:54;;;;;;;9.77;6.60;;;16.50;92.10;;;;;;5015823;28;20505;-79
2023/08/24 05:25:20;;;;;;;8.02;6.80;;;16.50;93.50;;;;;;5008179;28;20025;-80
2023/08/24 05:27:46;;;;;;;9.35;6.65;;;16.60;92.30;;;;;;5016996;28;20036;-79
2023/08/24 05:30:12;;;;;;;10.90;5.60;;;16.60;92.60;;;;;;5011880;28;20111;-79
2023/08/24 05:32:38;;;;;;;8.82;6.47;;;16.60;93.00;;;;;;5001347;28;20482;-80
2023/08/24 05:35:07;;;;;;;13.10;6.03;;;16.60;93.50;;;;;;5000592;28;20048;-78
2023/08/24 05:37:33;;;;;;;6.93;5.68;;;16.60;94.90;;;;;;5001214;28;20030;-78
2023/08/24 05:39:59;;;;;;;8.73;4.57;;;16.70;94.70;;;;;;4999254;28;20048;-78
2023/08/24 05:42:25;;;;;;;7.95;4.32;;;16.80;95.20;;;;;;4992099;28;20607;-77
2023/08/24 05:44:51;;;;;;;7.22;5.68;;;16.90;96.50;;;;;;5002347;28;20033;-79
2023/08/24 05:47:16;;;;;;;8.60;6.13;;;16.90;94.90;;;;;;5018326;28;20097;-79
2023/08/24 05:49:42;;;;;;;5.40;4.68;;;16.90;94.70;;;;;;5017024;28;20112;-79
2023/08/24 05:52:08;;;;;;;11.50;7.53;;;16.80;95.00;;;;;;5014822;28;20049;-79
2023/08/24 05:54:35;;;;;;;4.35;3.78;;;16.90;95.40;;;;;;5001014;28;20063;-79
2023/08/24 05:57:01;;;;;;;6.35;4.93;;;17.10;95.10;;;;;;5013803;28;20537;-79
2023/08/24 05:59:27;;;;;;;7.88;5.03;;;17.10;95.50;;;;;;4984804;28;20076;-79
2023/08/24 06:01:52;;;;;;;9.32;6.22;;;17.10;96.10;;;;;;5002467;28;20041;-80
2023/08/24 06:04:18;;;;;;;4.38;3.60;;;17.20;95.80;;;;;;4989552;28;20508;-79
2023/08/24 06:06:44;;;;;;;5.60;3.70;;;17.30;96.60;;;;;;5013766;28;20535;-79
2023/08/24 06:09:10;;;;;;;10.40;5.45;;;17.40;95.40;;;;;;5001360;28;20530;-77
2023/08/24 06:11:35;;;;;;;9.38;5.43;;;17.50;96.90;;;;;;5013858;28;20108;-77
2023/08/24 06:14:02;;;;;;;14.18;6.70;;;17.40;98.10;;;;;;4981974;28;20037;-76
2023/08/24 06:16:28;;;;;;;6.30;4.30;;;17.40;99.20;;;;;;5018457;28;20046;-77
2023/08/24 06:18:54;;;;;;;10.27;4.82;;;17.50;97.50;;;;;;4991507;28;20037;-77
2023/08/24 06:21:19;;;;;;;19.70;8.73;;;17.60;95.70;;;;;;5016739;28;20465;-79
2023/08/24 06:23:47;;;;;;;5.43;4.00;;;17.70;99.90;;;;;;5004375;28;20061;-81
2023/08/24 06:26:13;;;;;;;14.25;7.75;;;17.70;96.40;;;;;;4991099;28;20049;-80
2023/08/24 06:28:39;;;;;;;9.50;8.18;;;17.70;97.40;;;;;;5004520;28;20034;-80
2023/08/24 06:31:07;;;;;;;14.88;7.82;;;17.80;96.40;;;;;;4995780;28;20402;-78
2023/08/24 06:33:34;;;;;;;13.00;8.25;;;17.70;95.80;;;;;;5017956;28;20077;-78
2023/08/24 06:35:59;;;;;;;12.38;8.10;;;17.70;95.70;;;;;;4999115;28;20029;-80
2023/08/24 06:38:28;;;;;;;11.55;8.18;;;17.80;96.00;;;;;;5017387;28;20029;-79
2023/08/24 06:40:54;;;;;;;14.85;8.35;;;17.70;96.20;;;;;;4991936;28;20041;-79
2023/08/24 06:43:20;;;;;;;10.18;7.80;;;17.80;96.00;;;;;;4984250;28;20038;-80
2023/08/24 06:45:49;;;;;;;13.82;8.05;;;17.90;96.30;;;;;;4984827;28;20378;-80
2023/08/24 06:48:23;;;;;;;10.82;8.52;;;17.90;96.30;;;;;;5003269;28;20034;-80
2023/08/24 06:50:49;;;;;;;15.52;9.50;;;18.00;97.70;;;;;;4991214;28;20040;-80
2023/08/24 06:53:15;;;;;;;15.05;8.23;;;18.20;99.90;;;;;;4985685;28;20592;-80
2023/08/24 06:55:41;;;;;;;14.10;9.60;;;18.30;99.90;;;;;;4986597;28;20111;-80
2023/08/24 06:58:07;;;;;;;11.60;8.50;;;18.50;99.90;;;;;;4992318;28;20505;-80
2023/08/24 07:00:33;;;;;;;10.75;8.35;;;18.60;99.90;;;;;;4983063;28;20879;-81
2023/08/24 07:02:59;;;;;;;13.88;8.88;;;18.80;99.90;;;;;;5019699;28;20045;-80
2023/08/24 07:05:25;;;;;;;10.60;7.95;;;18.90;99.40;;;;;;4990907;28;20493;-80
2023/08/24 07:07:50;;;;;;;11.32;7.68;;;19.10;99.90;;;;;;5000418;28;20037;-80
2023/08/24 07:10:16;;;;;;;9.18;7.00;;;19.40;99.90;;;;;;4988192;28;20030;-79
2023/08/24 07:12:42;;;;;;;11.70;7.88;;;19.50;99.90;;;;;;5017392;28;20615;-78
2023/08/24 07:15:08;;;;;;;11.52;7.13;;;19.60;99.90;;;;;;5011653;28;20042;-80
2023/08/24 07:17:33;;;;;;;10.18;6.57;;;19.80;99.90;;;;;;4999772;28;20385;-80
2023/08/24 07:20:00;;;;;;;10.20;6.65;;;19.90;99.90;;;;;;5015332;28;20049;-80
2023/08/24 07:22:29;;;;;;;11.43;7.18;;;20.10;99.90;;;;;;4980558;28;20075;-80
2023/08/24 07:24:54;;;;;;;8.88;6.82;;;20.30;99.90;;;;;;5002292;28;20057;-80
2023/08/24 07:27:20;;;;;;;11.18;7.55;;;20.40;99.90;;;;;;4999070;28;20425;-80
2023/08/24 07:29:45;;;;;;;12.73;7.22;;;20.50;99.90;;;;;;5001290;28;20462;-80
2023/08/24 07:32:11;;;;;;;11.57;6.80;;;20.60;99.90;;;;;;4947310;28;20046;-80
2023/08/24 07:34:36;;;;;;;17.02;7.30;;;20.80;99.90;;;;;;4935551;28;20447;-80
2023/08/24 07:37:02;;;;;;;13.25;6.30;;;21.00;99.90;;;;;;5016989;28;21214;-79
2023/08/24 07:39:28;;;;;;;8.32;5.95;;;21.10;99.90;;;;;;4996371;28;20046;-79
2023/08/24 07:41:53;;;;;;;14.50;6.30;;;21.30;99.90;;;;;;5018139;28;20601;-80
2023/08/24 07:44:21;;;;;;;10.10;5.47;;;21.50;99.90;;;;;;5002786;28;20045;-80
2023/08/24 07:46:47;;;;;;;12.32;5.57;;;21.60;99.90;;;;;;5004116;28;20030;-79
2023/08/24 07:49:13;;;;;;;9.15;5.55;;;21.80;99.90;;;;;;5016616;28;20584;-81
2023/08/24 07:51:38;;;;;;;6.05;5.00;;;21.90;99.90;;;;;;4995218;28;20035;-79
2023/08/24 07:54:06;;;;;;;6.20;4.60;;;22.10;98.40;;;;;;5017717;28;20056;-79
2023/08/24 07:56:31;;;;;;;7.47;4.75;;;22.40;99.50;;;;;;5014291;28;20173;-80
2023/08/24 07:58:57;;;;;;;8.07;4.07;;;22.50;97.40;;;;;;5015600;28;20049;-80
2023/08/24 08:01:23;;;;;;;6.32;3.70;;;22.80;96.70;;;;;;5017986;28;20040;-80
2023/08/24 08:03:48;;;;;;;11.30;6.57;;;22.80;96.80;;;;;;5003963;28;20025;-80
2023/08/24 08:06:14;;;;;;;12.60;6.03;;;23.00;97.80;;;;;;5015099;28;20072;-79
2023/08/24 08:08:39;;;;;;;5.93;4.47;;;23.30;97.00;;;;;;5017012;28;20500;-80
2023/08/24 08:11:05;;;;;;;5.50;3.95;;;23.50;95.60;;;;;;4999742;28;20029;-79
2023/08/24 08:13:31;;;;;;;4.07;3.63;;;23.70;95.40;;;;;;5014816;28;20057;-78
2023/08/24 08:16:03;;;;;;;5.25;3.28;;;23.90;95.80;;;;;;5019754;28;20504;-80
2023/08/24 08:18:29;;;;;;;5.38;2.88;;;24.00;94.10;;;;;;4989030;28;20497;-80
2023/08/24 08:20:56;;;;;;;6.18;3.63;;;24.10;94.00;;;;;;4990495;28;20029;-79
2023/08/24 08:23:22;;;;;;;9.75;3.85;;;24.20;94.10;;;;;;4984234;28;20030;-80
2023/08/24 08:25:48;;;;;;;5.43;3.22;;;24.40;95.30;;;;;;5017284;28;20038;-80
2023/08/24 08:28:14;;;;;;;4.75;3.33;;;24.60;93.50;;;;;;5012718;28;20690;-80
2023/08/24 08:30:40;;;;;;;8.13;3.92;;;24.60;93.20;;;;;;5015252;28;20036;-79
2023/08/24 08:33:05;;;;;;;4.32;3.15;;;24.70;94.80;;;;;;5014786;28;20038;-79
2023/08/24 08:35:31;;;;;;;7.47;4.18;;;24.80;94.10;;;;;;5017223;28;20109;-79
2023/08/24 08:37:56;;;;;;;5.25;3.53;;;24.90;94.70;;;;;;5002784;28;20053;-78
2023/08/24 08:40:28;;;;;;;7.07;3.92;;;25.10;95.60;;;;;;5016764;28;20045;-78
2023/08/24 08:42:56;;;;;;;3.60;2.75;;;25.20;96.60;;;;;;5011477;28;20060;-78
2023/08/24 08:45:26;;;;;;;7.35;3.50;;;25.50;94.20;;;;;;5002024;28;20042;-79
2023/08/24 08:47:56;;;;;;;5.38;3.38;;;25.50;96.30;;;;;;5016810;28;20472;-78
2023/08/24 08:50:22;;;;;;;5.03;3.35;;;25.50;95.60;;;;;;5001099;28;20393;-79
2023/08/24 08:52:47;;;;;;;7.20;2.50;;;25.90;94.30;;;;;;4979647;28;20041;-79
2023/08/24 08:55:15;;;;;;;10.05;3.80;;;25.90;93.40;;;;;;4987329;28;20038;-78
2023/08/24 08:57:42;;;;;;;7.80;3.38;;;25.90;95.30;;;;;;4999453;28;20533;-78
2023/08/24 09:00:12;;;;;;;4.88;3.28;;;26.00;96.50;;;;;;5014522;28;20060;-78
2023/08/24 09:02:42;;;;;;;7.38;3.58;;;26.10;96.00;;;;;;5013040;28;20037;-78
2023/08/24 09:05:07;;;;;;;7.03;3.90;;;26.30;96.10;;;;;;5005353;28;20033;-78
2023/08/24 09:07:34;;;;;;;6.53;3.78;;;26.50;96.50;;;;;;4997049;28;20034;-78
2023/08/24 09:09:59;;;;;;;4.78;2.92;;;26.50;96.00;;;;;;4983212;28;20061;-78
2023/08/24 09:12:25;;;;;;;4.43;2.95;;;26.80;94.50;;;;;;5016032;28;20059;-79
2023/08/24 09:14:51;;;;;;;4.03;2.97;;;26.90;95.00;;;;;;5012689;28;20040;-78
2023/08/24 09:17:21;;;;;;;6.28;3.65;;;26.90;94.40;;;;;;5018307;28;20087;-78
2023/08/24 09:19:46;;;;;;;7.70;3.15;;;27.10;95.40;;;;;;5012055;28;20084;-79
2023/08/24 09:22:12;;;;;;;3.40;2.72;;;27.30;96.10;;;;;;5001031;28;20038;-78
2023/08/24 09:24:37;;;;;;;5.32;2.75;;;27.40;94.40;;;;;;4984431;28;20029;-78
2023/08/24 09:27:16;;;;;;;5.13;3.63;;;27.50;96.00;;;;;;5017639;28;20053;-79
2023/08/24 09:29:42;;;;;;;3.80;2.40;;;27.70;95.50;;;;;;4993976;28;20497;-78
2023/08/24 09:32:08;;;;;;;6.53;3.15;;;27.90;94.90;;;;;;4988468;28;20084;-80
2023/08/24 09:34:35;;;;;;;3.55;2.50;;;28.10;95.00;;;;;;4998517;28;20068;-80
2023/08/24 09:37:04;;;;;;;3.45;2.47;;;28.20;93.90;;;;;;4988080;28;20026;-81
2023/08/24 09:39:29;;;;;;;5.28;2.72;;;28.40;93.50;;;;;;4988609;28;20030;-80
2023/08/24 09:41:55;;;;;;;3.53;1.92;;;28.60;95.30;;;;;;5017119;28;20045;-81
2023/08/24 09:44:21;;;;;;;5.93;2.67;;;28.80;93.70;;;;;;5011599;28;20498;-79
2023/08/24 09:46:47;;;;;;;5.40;2.40;;;29.00;94.70;;;;;;4991421;28;20073;-80
2023/08/24 09:49:13;;;;;;;6.28;3.10;;;29.10;94.40;;;;;;5022650;28;20708;-78
2023/08/24 09:51:39;;;;;;;3.58;2.08;;;29.30;93.90;;;;;;4993965;28;20057;-79
2023/08/24 09:54:08;;;;;;;3.30;2.33;;;29.40;93.10;;;;;;5002480;28;20037;-81
2023/08/24 09:56:35;;;;;;;2.60;1.88;;;29.50;93.50;;;;;;5004075;28;20052;-82
2023/08/24 09:59:00;;;;;;;4.28;2.70;;;29.80;92.70;;;;;;5017360;28;20553;-82
2023/08/24 10:01:26;;;;;;;6.70;2.20;;;29.90;93.80;;;;;;5002072;28;20029;-82
2023/08/24 10:03:58;;;;;;;2.92;2.13;;;30.10;93.60;;;;;;4985458;28;20029;-82
2023/08/24 10:06:24;;;;;;;2.17;1.98;;;30.20;92.10;;;;;;5003614;28;20450;-82
2023/08/24 10:08:53;;;;;;;3.10;2.25;;;30.50;91.60;;;;;;4990358;28;20038;-82
2023/08/24 10:11:24;;;;;;;4.10;2.10;;;32.00;85.70;;;;;;5015736;28;20602;-82
2023/08/24 10:13:55;;;;;;;3.58;2.38;;;31.70;85.00;;;;;;5009114;28;20116;-81
2023/08/24 10:16:22;;;;;;;3.67;1.88;;;31.70;87.50;;;;;;5004721;28;20477;-82
2023/08/24 10:18:48;;;;;;;3.17;2.03;;;32.00;83.70;;;;;;5004239;28;20489;-80
2023/08/24 10:21:13;;;;;;;4.43;2.45;;;32.10;80.50;;;;;;5007970;28;20044;-80
2023/08/24 10:23:39;;;;;;;2.70;2.28;;;31.90;89.30;;;;;;5013694;28;20022;-82
2023/08/24 10:26:09;;;;;;;4.88;2.50;;;31.70;90.30;;;;;;5009177;28;20029;-81
2023/08/24 10:28:34;;;;;;;2.97;2.10;;;31.90;83.20;;;;;;5021889;28;20105;-83
2023/08/24 10:31:00;;;;;;;4.80;2.47;;;32.00;80.50;;;;;;5007449;28;20101;-81
2023/08/24 10:33:28;;;;;;;2.75;2.20;;;32.10;86.60;;;;;;5002710;28;20038;-82
2023/08/24 10:35:53;;;;;;;2.63;2.08;;;32.10;84.60;;;;;;4993997;28;20029;-81
2023/08/24 10:38:29;;;;;;;4.72;2.28;;;32.60;78.60;;;;;;5027242;28;20030;-81
2023/08/24 10:40:54;;;;;;;;;;;32.60;81.60;;;;;;5000243;28;20030;-81
2023/08/24 10:43:24;;;;;;;2.85;2.10;;;33.00;76.20;;;;;;5006345;28;20384;-82
2023/08/24 10:45:59;;;;;;;2.38;1.92;;;33.00;71.60;;;;;;4996662;28;20053;-80
2023/08/24 10:48:29;;;;;;;3.95;2.10;;;33.00;75.10;;;;;;5006122;28;20044;-81
2023/08/24 10:51:13;;;;;;;3.30;2.15;;;33.40;73.50;;;;;;5008034;28;20037;-80
2023/08/24 10:53:39;;;;;;;2.92;2.10;;;33.20;82.20;;;;;;5024840;28;20037;-80
2023/08/24 10:56:40;;;;;;;3.10;1.85;;;33.10;78.30;;;;;;5004247;28;20061;-81
2023/08/24 10:59:10;;;;;;;3.60;2.33;;;33.30;78.80;;;;;;5020793;28;20033;-80
2023/08/24 11:01:39;;;;;;;3.75;2.40;;;34.10;71.80;;;;;;5021630;28;20026;-80
2023/08/24 11:04:07;;;;;;;3.45;2.47;;;34.20;76.30;;;;;;5020186;28;20068;-80
2023/08/24 11:06:33;;;;;;;3.75;2.30;;;33.90;79.80;;;;;;5019602;28;20057;-82
2023/08/24 11:09:15;;;;;;;7.97;2.78;;;33.90;73.60;;;;;;5018781;28;20064;-80
2023/08/24 11:11:41;;;;;;;3.30;2.00;;;33.90;76.80;;;;;;4990178;28;20041;-80
2023/08/24 11:14:29;;;;;;;3.22;2.20;;;34.10;72.20;;;;;;5003108;28;20041;-80
2023/08/24 11:16:57;;;;;;;2.28;1.98;;;34.10;71.00;;;;;;5007299;28;20113;-80
2023/08/24 11:19:23;;;;;;;6.65;2.30;;;34.40;69.30;;;;;;5008363;28;20517;-80
2023/08/24 11:21:49;;;;;;;2.85;2.42;;;34.40;70.40;;;;;;4990533;28;20034;-82
2023/08/24 11:24:15;;;;;;;2.58;2.08;;;34.40;73.40;;;;;;5007478;28;20037;-79
2023/08/24 11:26:45;;;;;;;2.60;1.77;;;34.60;72.30;;;;;;5017749;28;20049;-80
2023/08/24 11:29:10;;;;;;;2.63;2.22;;;34.50;68.60;;;;;;5000916;28;20029;-80
2023/08/24 11:31:36;;;;;;;3.85;2.03;;;34.50;68.60;;;;;;5024899;28;20034;-79
2023/08/24 11:34:02;;;;;;;6.80;2.38;;;34.50;73.90;;;;;;4991337;28;20082;-78
2023/08/24 11:36:28;;;;;;;6.05;2.35;;;34.70;72.70;;;;;;4989295;28;20045;-78
2023/08/24 11:38:57;;;;;;;4.05;2.28;;;34.80;73.80;;;;;;5021679;28;20041;-81
2023/08/24 11:41:23;;;;;;;4.93;2.38;;;34.80;69.50;;;;;;5004732;28;20040;-80
2023/08/24 11:43:50;;;;;;;4.50;2.38;;;34.80;69.80;;;;;;5003172;28;20030;-80
2023/08/24 11:46:19;;;;;;;3.17;2.15;;;34.80;67.40;;;;;;4990281;28;20030;-79
2023/08/24 11:48:45;;;;;;;3.25;2.20;;;34.90;72.70;;;;;;5018941;28;20521;-82
2023/08/24 11:51:12;;;;;;;3.67;2.35;;;34.90;67.60;;;;;;5021147;28;20117;-79
2023/08/24 11:53:42;;;;;;;7.53;2.30;;;34.80;69.60;;;;;;5000415;28;20398;-79
2023/08/24 11:56:10;;;;;;;4.22;2.35;;;34.70;68.00;;;;;;4989656;28;20034;-80
2023/08/24 11:58:38;;;;;;;5.45;2.80;;;34.70;66.70;;;;;;4996693;28;20041;-78
2023/08/24 12:01:04;;;;;;;6.80;3.08;;;34.50;66.70;;;;;;5001059;28;20390;-79
2023/08/24 12:03:30;;;;;;;3.45;2.00;;;34.50;67.10;;;;;;4976534;28;20036;-78
2023/08/24 12:06:00;;;;;;;6.07;2.33;;;34.40;67.10;;;;;;5019639;28;20084;-79
2023/08/24 12:08:27;;;;;;;5.03;2.00;;;34.20;66.10;;;;;;5016615;28;20876;-79
2023/08/24 12:10:53;;;;;;;5.30;2.05;;;34.30;66.40;;;;;;4987924;28;20372;-78
2023/08/24 12:13:19;;;;;;;3.13;2.40;;;34.30;68.20;;;;;;4999506;28;20041;-78
2023/08/24 12:15:47;;;;;;;3.33;2.40;;;34.20;67.20;;;;;;4984552;28;20033;-79
2023/08/24 12:18:13;;;;;;;3.10;2.10;;;34.40;71.50;;;;;;5014220;28;20362;-78
2023/08/24 12:20:42;;;;;;;6.28;2.85;;;34.50;72.10;;;;;;4999859;28;20037;-78
2023/08/24 12:23:10;;;;;;;5.28;2.40;;;34.40;68.10;;;;;;5016602;28;20030;-78
2023/08/24 12:25:42;;;;;;;4.10;2.10;;;34.30;66.60;;;;;;5013392;28;20064;-79
2023/08/24 12:28:14;;;;;;;4.03;2.60;;;34.20;67.00;;;;;;5000871;28;20025;-78
2023/08/24 12:30:50;;;;;;;4.95;2.00;;;34.30;66.50;;;;;;5011618;28;20034;-78
2023/08/24 12:33:25;;;;;;;3.63;2.45;;;34.20;66.40;;;;;;5017537;28;20036;-79
2023/08/24 12:35:51;;;;;;;2.65;2.13;;;34.00;66.90;;;;;;5017902;28;20033;-79
2023/08/24 12:38:17;;;;;;;5.97;2.80;;;34.10;68.30;;;;;;4999301;28;20085;-78
2023/08/24 12:40:42;;;;;;;7.82;3.03;;;34.20;66.80;;;;;;4999395;28;20033;-79
2023/08/24 12:43:08;;;;;;;6.07;2.50;;;34.40;67.20;;;;;;4978560;28;20078;-80